Portada
METAR-TAF:

METAR-TAF

Aeropuertos :

Danville, Illinois, Estados Unidos

latitud: 40-11-58N, longitud: 087-35-44W, altitud: 212 m

Observación

El informe se hizo hace 42 minutos, a las 20:35 UTC
Viento 6 kt del sureste
Temperatura 32°C
Humedad 49%
Presión 1023 hPa
Visibilidad: 16.1 km
Nubes dispersas a una altura de 7000 ft
Nubes dispersas a una altura de 8000 ft

METAR: KDNV 192035Z AUTO 14006KT 10SM SCT070 SCT080 32/20 A3021 RMK AO2 T03230196

Hora: 16:17 (21:17 UTC)


TAF: falta

Observaciones y pronósticos meteorológicos de más de 4000 aeropuertos (mensajes METAR y TAF).

Los puntos amarillos y rojos representan las estaciones disponibles.

Ponga el ratón en el punto deseado para ver el nombre de la estación.

Haga clic para ver las observaciones y los pronósticos meteorológicos.

Para cambiar el mapa : haga clic en los botones verdes con una cruz de color negro para hacer un zoom, en el botón verde con un guión para alejar o en las flechas verdes para mapas adyacentes.


METAR-TAF: